Time;durP1;ratioP1;P1;durP2;ratioP2;P2;SDS_P1;SDS_P2;PMS_P1;PMS_P2;Temp;Humidity;BMP_temperature;BMP_pressure;BME280_temperature;BME280_humidity;BME280_pressure;Samples;Min_cycle;Max_cycle;Signal;HPM_P1;HPM_P2
2023/03/22 00:00:36;;;;;;;24.85;19.50;;;;;;;-146.25;100.00;52441.19;2096495;28;35189;-69
2023/03/22 00:01:40;;;;;;;23.40;18.23;;;;;;;-146.25;100.00;52433.06;2087297;28;30896;-70
2023/03/22 00:02:42;;;;;;;28.33;19.42;;;;;;;-146.25;100.00;52469.56;2088343;28;33415;-70
2023/03/22 00:03:44;;;;;;;23.48;19.15;;;;;;;-146.25;100.00;52451.31;2096559;28;29812;-70
2023/03/22 00:04:46;;;;;;;27.08;20.38;;;;;;;-146.25;100.00;52433.06;2086852;28;37269;-70
2023/03/22 00:05:48;;;;;;;26.88;20.02;;;;;;;-146.25;100.00;52424.97;2087589;28;34133;-70
2023/03/22 00:06:50;;;;;;;27.05;19.98;;;;;;;-146.25;100.00;52453.34;2096460;28;38974;-70
2023/03/22 00:07:56;;;;;;;27.85;20.25;;;;;;;-146.25;100.00;52453.34;2096138;28;35154;-70
2023/03/22 00:08:58;;;;;;;26.10;19.50;;;;;;;-146.25;100.00;52477.69;2096739;28;33093;-70
2023/03/22 00:10:00;;;;;;;25.75;19.13;;;;;;;-146.25;100.00;52489.84;2087203;28;34462;-70
2023/03/22 00:11:06;;;;;;;27.88;20.63;;;;;;;-146.25;100.00;52453.34;2079405;28;38287;-70
2023/03/22 00:12:08;;;;;;;27.02;20.15;;;;;;;-146.25;100.00;52433.06;2088087;28;33915;-70
2023/03/22 00:13:10;;;;;;;30.05;21.00;;;;;;;-146.25;100.00;52445.25;2096304;28;36654;-70
2023/03/22 00:14:12;;;;;;;27.23;20.17;;;;;;;-146.25;100.00;52445.25;2096787;28;20033;-70
2023/03/22 00:15:17;;;;;;;26.50;19.73;;;;;;;-146.25;100.00;52441.19;2096559;28;35061;-70
2023/03/22 00:16:22;;;;;;;26.38;20.00;;;;;;;-146.25;100.00;52453.34;2096239;28;29510;-70
2023/03/22 00:17:24;;;;;;;25.75;20.13;;;;;;;-146.25;100.00;52433.06;2096976;28;34104;-70
2023/03/22 00:18:26;;;;;;;27.85;20.80;;;;;;;-146.25;100.00;52427.00;2096015;28;33251;-70
2023/03/22 00:19:28;;;;;;;31.02;21.27;;;;;;;-146.25;100.00;52451.31;2096530;28;35148;-70
2023/03/22 00:20:32;;;;;;;26.08;19.45;;;;;;;-146.25;100.00;52487.81;2096135;28;31916;-70
2023/03/22 00:21:34;;;;;;;24.92;20.20;;;;;;;-146.25;100.00;52402.66;2087167;28;35136;-70
2023/03/22 00:22:38;;;;;;;25.20;20.10;;;;;;;-146.25;100.00;52437.13;2070907;28;30359;-70
2023/03/22 00:23:40;;;;;;;25.48;19.98;;;;;;;-146.25;100.00;52473.63;2080483;28;20910;-70
2023/03/22 00:24:42;;;;;;;26.65;19.40;;;;;;;-146.25;100.00;52443.22;2087271;28;34293;-70
2023/03/22 00:25:45;;;;;;;26.13;19.35;;;;;;;-146.25;100.00;52449.31;2088106;28;24550;-70
2023/03/22 00:26:47;;;;;;;28.00;20.30;;;;;;;-146.25;100.00;52443.22;2086926;28;38818;-70
2023/03/22 00:27:49;;;;;;;26.50;20.73;;;;;;;-146.25;100.00;52429.03;2087044;28;29121;-70
2023/03/22 00:28:51;;;;;;;28.15;19.65;;;;;;;-146.25;100.00;52447.28;2096778;28;23326;-70
2023/03/22 00:29:53;;;;;;;26.02;20.33;;;;;;;-146.25;100.00;52441.19;2095981;28;25184;-70
2023/03/22 00:30:59;;;;;;;28.45;19.73;;;;;;;-146.25;100.00;52443.22;2095534;28;29903;-70
2023/03/22 00:32:01;;;;;;;26.80;20.52;;;;;;;-146.25;100.00;52420.91;2096675;28;20906;-70
2023/03/22 00:33:06;;;;;;;26.77;20.48;;;;;;;-146.25;100.00;52418.88;2087236;28;20053;-70
2023/03/22 00:34:07;;;;;;;26.05;20.23;;;;;;;-146.25;100.00;52461.47;2087951;28;20068;-70
2023/03/22 00:35:11;;;;;;;31.80;21.92;;;;;;;-146.25;100.00;52469.56;2079351;28;20116;-68
2023/03/22 00:36:13;;;;;;;29.13;21.95;;;;;;;-146.25;100.00;52471.59;2071174;28;34961;-70
2023/03/22 00:37:15;;;;;;;26.25;20.90;;;;;;;-146.25;100.00;52477.69;2079852;28;20042;-69
2023/03/22 00:38:17;;;;;;;27.60;20.67;;;;;;;-146.25;100.00;52504.03;2087464;28;29749;-70
2023/03/22 00:39:19;;;;;;;28.08;21.15;;;;;;;-146.25;100.00;52441.19;2087880;28;20835;-70
2023/03/22 00:40:20;;;;;;;30.75;22.33;;;;;;;-146.25;100.00;52461.47;2096292;28;28463;-70
2023/03/22 00:41:23;;;;;;;27.95;21.60;;;;;;;-146.25;100.00;52406.72;2087544;28;20107;-68
2023/03/22 00:42:25;;;;;;;32.95;22.48;;;;;;;-146.25;100.00;52439.16;2087738;28;20037;-70
2023/03/22 00:43:27;;;;;;;29.15;22.00;;;;;;;-146.25;100.00;52459.44;2096387;28;31695;-70
2023/03/22 00:44:29;;;;;;;32.10;22.67;;;;;;;-146.25;100.00;52443.22;2096813;28;27199;-69
2023/03/22 00:45:30;;;;;;;32.60;23.55;;;;;;;-146.25;100.00;52429.03;2086633;28;32841;-69
2023/03/22 00:46:32;;;;;;;32.95;23.35;;;;;;;-146.25;100.00;52449.31;2096371;28;20870;-71
2023/03/22 00:47:34;;;;;;;33.58;25.58;;;;;;;-146.25;100.00;52449.31;2096127;28;20823;-70
2023/03/22 00:48:37;;;;;;;33.88;23.45;;;;;;;-146.25;100.00;52441.19;2096003;28;20966;-69
2023/03/22 00:49:40;;;;;;;32.47;24.60;;;;;;;-146.25;100.00;52455.38;2087409;28;20061;-70
2023/03/22 00:50:41;;;;;;;33.33;24.95;;;;;;;-146.25;100.00;52469.56;2087985;28;20038;-69
2023/03/22 00:51:46;;;;;;;34.58;24.33;;;;;;;-146.25;100.00;52435.09;2096066;28;32090;-69
2023/03/22 00:52:48;;;;;;;31.75;24.70;;;;;;;-146.25;100.00;52400.63;2096122;28;20045;-70
2023/03/22 00:53:51;;;;;;;33.42;24.98;;;;;;;-146.25;100.00;52477.69;2087575;28;20037;-69
2023/03/22 00:54:52;;;;;;;32.03;24.25;;;;;;;-146.25;100.00;52435.09;2079854;28;20084;-69
2023/03/22 00:55:58;;;;;;;31.92;24.60;;;;;;;-146.25;100.00;52437.13;2087040;28;31575;-69
2023/03/22 00:57:01;;;;;;;37.58;26.67;;;;;;;-146.25;100.00;52437.13;2096609;28;20091;-69
2023/03/22 00:58:03;;;;;;;31.13;24.75;;;;;;;-146.25;100.00;52437.13;2095665;28;20099;-69
2023/03/22 00:59:07;;;;;;;32.42;24.77;;;;;;;-146.25;100.00;52412.81;2088054;28;20041;-70
2023/03/22 01:00:12;;;;;;;37.30;26.88;;;;;;;-146.25;100.00;52477.69;2079423;28;20034;-71
2023/03/22 01:01:14;;;;;;;34.63;26.13;;;;;;;-146.25;100.00;52461.47;2079732;28;21310;-70
2023/03/22 01:02:16;;;;;;;32.80;25.80;;;;;;;-146.25;100.00;52485.81;2087523;28;20042;-70
2023/03/22 01:03:20;;;;;;;34.70;25.95;;;;;;;-146.25;100.00;52437.13;2079597;28;20120;-71
2023/03/22 01:04:26;;;;;;;35.30;26.17;;;;;;;-146.25;100.00;52437.13;2071543;28;20919;-69
2023/03/22 01:05:32;;;;;;;35.20;26.08;;;;;;;-146.25;100.00;52437.13;2064507;28;26341;-70
2023/03/22 01:06:34;;;;;;;33.70;25.42;;;;;;;-146.25;100.00;52435.09;2072889;28;20030;-69
2023/03/22 01:07:38;;;;;;;32.03;25.80;;;;;;;-146.25;100.00;52473.63;2080122;28;20053;-70
2023/03/22 01:08:43;;;;;;;32.08;24.60;;;;;;;-146.25;100.00;52459.44;2079902;28;20799;-70
2023/03/22 01:09:44;;;;;;;31.35;24.73;;;;;;;-146.25;100.00;52435.09;2079443;28;37882;-70
2023/03/22 01:10:49;;;;;;;34.25;25.75;;;;;;;-146.25;100.00;52418.88;2088002;28;20068;-70
2023/03/22 01:11:51;;;;;;;35.55;25.27;;;;;;;-146.25;100.00;52455.38;2096269;28;27716;-70
2023/03/22 01:12:53;;;;;;;29.52;24.17;;;;;;;-146.25;100.00;52422.94;2096279;28;26638;-70
2023/03/22 01:13:54;;;;;;;30.70;23.63;;;;;;;-146.25;100.00;52433.06;2087714;28;20113;-71
2023/03/22 01:14:56;;;;;;;32.65;24.63;;;;;;;-146.25;100.00;52422.94;2078901;28;20115;-70
2023/03/22 01:15:58;;;;;;;33.08;23.92;;;;;;;-146.25;100.00;52416.84;2079032;28;32945;-69
2023/03/22 01:17:00;;;;;;;35.10;23.80;;;;;;;-146.25;100.00;52437.13;2087607;28;20160;-70
2023/03/22 01:18:02;;;;;;;31.80;23.80;;;;;;;-146.25;100.00;52437.13;2095605;28;22301;-69
2023/03/22 01:19:06;;;;;;;31.90;24.25;;;;;;;-146.25;100.00;52475.66;2087452;28;20783;-70
2023/03/22 01:20:09;;;;;;;32.40;23.85;;;;;;;-146.25;100.00;52410.78;2079507;28;20065;-70
2023/03/22 01:21:12;;;;;;;32.65;24.15;;;;;;;-146.25;100.00;52441.19;2079662;28;20046;-71
2023/03/22 01:22:19;;;;;;;31.85;23.60;;;;;;;-146.25;100.00;52445.25;2079427;28;20128;-71
2023/03/22 01:23:21;;;;;;;35.47;23.80;;;;;;;-146.25;100.00;52461.47;2079733;28;20042;-70
2023/03/22 01:24:24;;;;;;;32.30;23.45;;;;;;;-146.25;100.00;52414.84;2079939;28;20990;-70
2023/03/22 01:25:25;;;;;;;28.77;22.60;;;;;;;-146.25;100.00;52424.97;2079031;28;20038;-70
2023/03/22 01:26:27;;;;;;;29.73;22.83;;;;;;;-146.25;100.00;52416.84;2087680;28;21681;-70
2023/03/22 01:27:30;;;;;;;28.77;22.08;;;;;;;-146.25;100.00;52449.31;2087400;28;20041;-70
2023/03/22 01:28:31;;;;;;;29.90;22.15;;;;;;;-146.25;100.00;52445.25;2079320;28;20080;-71
2023/03/22 01:29:34;;;;;;;29.00;21.27;;;;;;;-146.25;100.00;52431.06;2079390;28;20034;-70
2023/03/22 01:30:39;;;;;;;28.90;21.38;;;;;;;-146.25;100.00;52439.16;2078940;28;32209;-70
2023/03/22 01:31:43;;;;;;;29.88;21.65;;;;;;;-146.25;100.00;52412.81;2071498;28;21112;-70
2023/03/22 01:32:46;;;;;;;28.02;20.80;;;;;;;-146.25;100.00;52424.97;2071887;28;20050;-70
2023/03/22 01:33:50;;;;;;;27.17;21.10;;;;;;;-146.25;100.00;52437.13;2079232;28;20176;-69
2023/03/22 01:34:52;;;;;;;27.63;21.35;;;;;;;-146.25;100.00;52451.31;2079590;28;20038;-69
2023/03/22 01:35:54;;;;;;;24.00;20.15;;;;;;;-146.25;100.00;52412.81;2079244;28;20038;-70
2023/03/22 01:36:57;;;;;;;31.60;21.55;;;;;;;-146.25;100.00;52473.63;2087700;28;20045;-69
2023/03/22 01:37:58;;;;;;;28.92;21.33;;;;;;;-146.25;100.00;52459.44;2087536;28;20037;-70
2023/03/22 01:39:01;;;;;;;27.88;20.67;;;;;;;-146.25;100.00;52408.75;2079811;28;20042;-69
2023/03/22 01:40:04;;;;;;;28.52;21.13;;;;;;;-146.25;100.00;52451.31;2080667;28;20970;-69
2023/03/22 01:41:07;;;;;;;31.67;21.02;;;;;;;-146.25;100.00;52473.63;2080652;28;20046;-69
2023/03/22 01:42:13;;;;;;;27.40;20.80;;;;;;;-146.25;100.00;52453.34;2081232;28;20945;-69
2023/03/22 01:43:16;;;;;;;29.77;21.75;;;;;;;-146.25;100.00;52437.13;2080623;28;20054;-69
2023/03/22 01:44:21;;;;;;;28.02;20.40;;;;;;;-146.25;100.00;52429.03;2089190;28;20266;-69
2023/03/22 01:45:46;;;;;;;25.85;20.38;;;;;;;-146.25;100.00;52435.09;2096358;28;20045;-69
2023/03/22 01:46:50;;;;;;;26.85;19.27;;;;;;;-146.25;100.00;52404.69;2097809;28;20968;-69
2023/03/22 01:48:07;;;;;;;25.10;19.50;;;;;;;-146.25;100.00;52416.84;2088786;28;20130;-70
2023/03/22 01:49:18;;;;;;;27.38;19.48;;;;;;;-146.25;100.00;52461.47;2075019;28;20093;-68
2023/03/22 01:50:23;;;;;;;27.73;19.63;;;;;;;-146.25;100.00;52461.47;2075556;28;20166;-71
2023/03/22 01:51:25;;;;;;;25.80;19.45;;;;;;;-146.25;100.00;52431.06;2081202;28;20042;-70
2023/03/22 01:52:49;;;;;;;25.60;18.63;;;;;;;-146.25;100.00;52418.88;2080166;28;20057;-70
2023/03/22 01:54:02;;;;;;;26.70;19.08;;;;;;;-146.25;100.00;52431.06;2069028;28;20054;-70
2023/03/22 01:55:08;;;;;;;24.58;19.05;;;;;;;-146.25;100.00;52416.84;2067281;28;20129;-69
2023/03/22 01:56:24;;;;;;;27.33;19.50;;;;;;;-146.25;100.00;52457.41;2075641;28;20057;-69
2023/03/22 01:57:27;;;;;;;27.50;19.55;;;;;;;-146.25;100.00;52412.81;2081649;28;20045;-70
2023/03/22 01:58:35;;;;;;;26.38;18.63;;;;;;;-146.25;100.00;52465.53;2080968;28;20123;-70
2023/03/22 01:59:40;;;;;;;27.05;19.23;;;;;;;-146.25;100.00;52451.31;2081147;28;20045;-70
2023/03/22 02:00:57;;;;;;;24.60;17.98;;;;;;;-146.25;100.00;52394.56;2080586;28;20962;-70
2023/03/22 02:02:29;;;;;;;25.58;19.15;;;;;;;-146.25;100.00;52429.03;2080916;28;20123;-70
2023/03/22 02:04:01;;;;;;;25.73;18.30;;;;;;;-146.25;100.00;52400.63;2086529;28;20478;-70
2023/03/22 02:05:04;;;;;;;26.50;19.13;;;;;;;-146.25;100.00;52420.91;2075120;28;20885;-69
2023/03/22 02:06:06;;;;;;;25.13;17.67;;;;;;;-146.25;100.00;52463.50;2080534;28;20049;-69
2023/03/22 02:07:15;;;;;;;24.33;18.27;;;;;;;-146.25;100.00;52408.75;2118017;22;20187;-71
2023/03/22 02:08:20;;;;;;;25.40;18.67;;;;;;;-146.25;100.00;52412.81;2088688;28;20049;-70
2023/03/22 02:09:40;;;;;;;26.42;17.70;;;;;;;-146.25;100.00;52461.47;2088738;28;20037;-71
2023/03/22 02:10:43;;;;;;;23.85;17.55;;;;;;;-146.25;100.00;52451.31;2075120;28;20061;-70
2023/03/22 02:11:56;;;;;;;23.98;16.98;;;;;;;-146.25;100.00;52457.41;2080928;28;20046;-70
2023/03/22 02:13:28;;;;;;;23.33;17.10;;;;;;;-146.25;100.00;52416.84;2088796;28;20945;-71
2023/03/22 02:15:17;;;;;;;23.55;15.80;;;;;;;-146.25;100.00;52424.97;2085677;28;20045;-70
2023/03/22 02:17:18;;;;;;;22.75;14.88;;;;;;;-146.25;100.00;52435.09;2088515;28;20242;-71
2023/03/22 02:18:53;;;;;;;21.15;15.00;;;;;;;-146.25;100.00;52441.19;2087261;28;20054;-71
2023/03/22 02:20:27;;;;;;;19.42;13.93;;;;;;;-146.25;100.00;52437.13;2080140;28;20053;-71
2023/03/22 02:21:48;;;;;;;19.67;13.27;;;;;;;-146.25;100.00;52422.94;2054869;28;20059;-70
2023/03/22 02:23:19;;;;;;;20.42;13.63;;;;;;;-146.25;100.00;52420.91;2094163;28;23351;-71
2023/03/22 02:25:05;;;;;;;19.73;13.82;;;;;;;-146.25;100.00;52447.28;2088203;28;29957;-70
2023/03/22 02:27:11;;;;;;;17.27;12.43;;;;;;;-146.25;100.00;52418.88;2080312;28;20037;-71
2023/03/22 02:28:32;;;;;;;18.25;12.90;;;;;;;-146.25;100.00;52443.22;2063273;28;20817;-71
2023/03/22 02:29:59;;;;;;;18.08;12.57;;;;;;;-146.25;100.00;52443.22;2071876;28;20050;-71
2023/03/22 02:31:32;;;;;;;18.25;12.15;;;;;;;-146.25;100.00;52412.81;2083681;28;20054;-71
2023/03/22 02:32:59;;;;;;;18.20;12.18;;;;;;;-146.25;100.00;52437.13;2080037;28;25559;-71
2023/03/22 02:34:14;;;;;;;18.38;11.23;;;;;;;-146.25;100.00;52445.25;2076282;28;20081;-70
2023/03/22 02:35:45;;;;;;;17.02;11.07;;;;;;;-146.25;100.00;52439.16;2073514;28;20923;-71
2023/03/22 02:37:32;;;;;;;19.08;10.77;;;;;;;-146.25;100.00;52457.41;2076483;28;20835;-71
2023/03/22 02:39:35;;;;;;;18.17;11.18;;;;;;;-146.25;100.00;52433.06;2086535;28;29752;-71
2023/03/22 02:41:17;;;;;;;16.20;10.18;;;;;;;-146.25;100.00;52429.03;2063213;28;20070;-71
2023/03/22 02:42:45;;;;;;;15.18;10.25;;;;;;;-146.25;100.00;52416.84;2079849;28;20850;-71
2023/03/22 02:44:19;;;;;;;15.90;9.68;;;;;;;-146.25;100.00;52469.56;2075696;28;20108;-70
2023/03/22 02:45:46;;;;;;;17.90;9.98;;;;;;;-146.25;100.00;52400.63;2092712;28;20838;-69
2023/03/22 02:47:03;;;;;;;16.65;9.63;;;;;;;-146.25;100.00;52447.28;2087895;28;38240;-71
2023/03/22 02:48:15;;;;;;;13.38;8.73;;;;;;;-146.25;100.00;52471.59;2082921;28;20037;-71
2023/03/22 02:49:30;;;;;;;16.27;10.32;;;;;;;-146.25;100.00;52463.50;2084590;28;20083;-71
2023/03/22 02:50:53;;;;;;;16.02;9.77;;;;;;;-146.25;100.00;52481.75;2094085;28;29865;-71
2023/03/22 02:52:02;;;;;;;14.20;9.38;;;;;;;-146.25;100.00;52451.31;2089395;28;20040;-70
2023/03/22 02:53:26;;;;;;;14.48;9.07;;;;;;;-146.25;100.00;52443.22;2079773;28;27885;-71
2023/03/22 02:55:02;;;;;;;18.58;8.50;;;;;;;-146.25;100.00;52441.19;2082332;28;39723;-70
2023/03/22 02:56:14;;;;;;;16.40;9.13;;;;;;;-146.25;100.00;52439.16;2084435;28;33280;-71
2023/03/22 02:57:44;;;;;;;13.43;8.60;;;;;;;-146.25;100.00;52429.03;2084588;28;22235;-71
2023/03/22 02:58:52;;;;;;;12.85;8.48;;;;;;;-146.25;100.00;52433.06;2083139;28;30157;-69
2023/03/22 02:59:57;;;;;;;13.10;8.15;;;;;;;-146.25;100.00;52429.03;2079883;28;32052;-70
2023/03/22 03:01:04;;;;;;;13.50;8.18;;;;;;;-146.25;100.00;52459.44;2085062;28;26533;-70
2023/03/22 03:02:17;;;;;;;14.90;8.77;;;;;;;-146.25;100.00;52437.13;2107152;28;20881;-70
2023/03/22 03:03:24;;;;;;;15.75;8.90;;;;;;;-146.25;100.00;52420.91;2104861;28;25690;-70
2023/03/22 03:04:39;;;;;;;14.43;7.88;;;;;;;-146.25;100.00;52435.09;2099021;28;25330;-70
2023/03/22 03:05:45;;;;;;;13.70;7.68;;;;;;;-146.25;100.00;52394.56;2099048;28;27226;-70
2023/03/22 03:06:51;;;;;;;12.57;7.63;;;;;;;-146.25;100.00;52441.19;2097214;28;31219;-70
2023/03/22 03:08:01;;;;;;;13.25;7.45;;;;;;;-146.25;100.00;52416.84;2097024;28;20080;-70
2023/03/22 03:09:07;;;;;;;11.88;7.47;;;;;;;-146.25;100.00;52439.16;2089881;28;20112;-70
2023/03/22 03:10:12;;;;;;;12.63;7.50;;;;;;;-146.25;100.00;52443.22;2088446;28;20919;-70
2023/03/22 03:11:16;;;;;;;13.80;7.20;;;;;;;-146.25;100.00;52449.31;2089069;28;20122;-69
2023/03/22 03:12:23;;;;;;;12.82;7.53;;;;;;;-146.25;100.00;52424.97;2090361;28;20037;-70
2023/03/22 03:13:27;;;;;;;14.02;7.50;;;;;;;-146.25;100.00;52449.31;2105127;28;20090;-70
2023/03/22 03:14:31;;;;;;;12.55;6.85;;;;;;;-146.25;100.00;52408.75;2105290;28;20109;-70
2023/03/22 03:15:41;;;;;;;13.50;6.97;;;;;;;-146.25;100.00;52463.50;2096667;28;20045;-69
2023/03/22 03:16:43;;;;;;;13.60;6.93;;;;;;;-146.25;100.00;52416.84;2106801;28;20036;-70
2023/03/22 03:17:54;;;;;;;10.63;6.90;;;;;;;-146.25;100.00;52441.19;2111730;28;28538;-69
2023/03/22 03:19:08;;;;;;;9.85;6.68;;;;;;;-146.25;100.00;52463.50;2113081;28;20159;-70
2023/03/22 03:20:54;;;;;;;11.13;6.80;;;;;;;-146.25;100.00;52475.66;2104367;28;31935;-69
2023/03/22 03:22:36;;;;;;;9.98;6.32;;;;;;;-146.25;100.00;52443.22;2098408;28;26422;-70
2023/03/22 03:24:26;;;;;;;11.27;6.43;;;;;;;-146.25;100.00;52475.66;2104121;28;36945;-70
2023/03/22 03:25:32;;;;;;;13.60;6.47;;;;;;;-146.25;100.00;52422.94;2088304;28;20033;-70
2023/03/22 03:26:57;;;;;;;12.48;6.40;;;;;;;-146.25;100.00;52433.06;2112874;28;20917;-68
2023/03/22 03:28:29;;;;;;;11.38;6.35;;;;;;;-146.25;100.00;52431.06;2100042;28;20161;-70
2023/03/22 03:29:39;;;;;;;10.77;6.18;;;;;;;-146.25;100.00;52465.53;2105433;28;20110;-69
2023/03/22 03:30:56;;;;;;;;;;;;;;;-146.25;100.00;52441.19;2105889;28;20045;-70
2023/03/22 03:32:14;;;;;;;12.82;6.07;;;;;;;-146.25;100.00;52410.78;2104579;28;35165;-70
2023/03/22 03:33:24;;;;;;;12.90;5.50;;;;;;;-146.25;100.00;52427.00;2087781;28;34276;-69
2023/03/22 03:34:51;;;;;;;10.30;6.03;;;;;;;-146.25;100.00;52416.84;2091218;28;33169;-70
2023/03/22 03:36:01;;;;;;;10.60;5.60;;;;;;;-146.25;100.00;52443.22;2104579;28;25719;-70
2023/03/22 03:37:10;;;;;;;12.30;6.15;;;;;;;-146.25;100.00;52416.84;2104641;28;31158;-70
2023/03/22 03:38:22;;;;;;;10.10;5.95;;;;;;;-146.25;100.00;52427.00;2105865;28;21387;-70
2023/03/22 03:39:30;;;;;;;9.07;5.60;;;;;;;-146.25;100.00;52445.25;2090548;28;20045;-70
2023/03/22 03:40:39;;;;;;;8.27;5.72;;;;;;;-146.25;100.00;52459.44;2091009;28;26748;-70
2023/03/22 03:41:45;;;;;;;10.82;5.75;;;;;;;-146.25;100.00;52416.84;2089601;28;30326;-70
2023/03/22 03:42:51;;;;;;;13.38;6.43;;;;;;;-146.25;100.00;52445.25;2089645;28;28286;-70
2023/03/22 03:43:55;;;;;;;9.23;5.40;;;;;;;-146.25;100.00;52443.22;2097791;28;31234;-70
2023/03/22 03:44:59;;;;;;;13.05;5.65;;;;;;;-146.25;100.00;52453.34;2087651;28;33852;-70
2023/03/22 03:46:02;;;;;;;9.48;5.53;;;;;;;-146.25;100.00;52427.00;2097656;28;20819;-70
2023/03/22 03:47:07;;;;;;;11.18;6.25;;;;;;;-146.25;100.00;52427.00;2111910;28;29532;-70
2023/03/22 03:48:18;;;;;;;11.45;5.55;;;;;;;-146.25;100.00;52435.09;2104634;28;37401;-70
2023/03/22 03:49:22;;;;;;;12.02;5.68;;;;;;;-146.25;100.00;52431.06;2104973;28;20822;-70
2023/03/22 03:50:25;;;;;;;9.70;5.65;;;;;;;-146.25;100.00;52441.19;2098139;28;20134;-70
2023/03/22 03:51:29;;;;;;;11.77;6.32;;;;;;;-146.25;100.00;52449.31;2097303;28;20040;-70
2023/03/22 03:52:31;;;;;;;11.52;5.90;;;;;;;-146.25;100.00;52424.97;2096510;28;20040;-70
2023/03/22 03:53:32;;;;;;;9.30;5.70;;;;;;;-146.25;100.00;52424.97;2096441;28;20383;-70
2023/03/22 03:54:37;;;;;;;13.50;6.80;;;;;;;-146.25;100.00;52437.13;2104931;28;20834;-70
2023/03/22 03:55:43;;;;;;;9.32;5.32;;;;;;;-146.25;100.00;52435.09;2104316;28;20041;-70
2023/03/22 03:56:46;;;;;;;11.73;6.30;;;;;;;-146.25;100.00;52418.88;2096388;28;20048;-70
2023/03/22 03:57:48;;;;;;;11.82;6.13;;;;;;;-146.25;100.00;52433.06;2096561;28;20025;-70
2023/03/22 03:58:52;;;;;;;11.32;5.70;;;;;;;-146.25;100.00;52447.28;2104808;28;20033;-70
2023/03/22 03:59:54;;;;;;;9.52;5.70;;;;;;;-146.25;100.00;52445.25;2096606;28;20045;-70
2023/03/22 04:01:17;;;;;;;10.05;5.72;;;;;;;-146.25;100.00;52412.81;2103731;28;20056;-70
2023/03/22 04:02:21;;;;;;;9.35;5.38;;;;;;;-146.25;100.00;52471.59;2104943;28;20045;-70
2023/03/22 04:03:26;;;;;;;12.90;5.82;;;;;;;-146.25;100.00;52435.09;2096278;28;20146;-70
2023/03/22 04:04:50;;;;;;;11.63;5.32;;;;;;;-146.25;100.00;52412.81;2079089;28;20053;-70
2023/03/22 04:05:54;;;;;;;12.43;5.72;;;;;;;-146.25;100.00;52422.94;2102290;28;20045;-70
2023/03/22 04:07:01;;;;;;;11.45;5.90;;;;;;;-146.25;100.00;52461.47;2104460;28;20032;-70
2023/03/22 04:08:04;;;;;;;9.70;5.03;;;;;;;-146.25;100.00;52449.31;2104606;28;20045;-70
2023/03/22 04:09:06;;;;;;;9.32;5.53;;;;;;;-146.25;100.00;52384.41;2096461;28;20896;-70
2023/03/22 04:10:13;;;;;;;13.57;5.28;;;;;;;-146.25;100.00;52431.06;2105177;28;20044;-70
2023/03/22 04:11:17;;;;;;;10.15;5.80;;;;;;;-146.25;100.00;52461.47;2113278;28;20039;-70
2023/03/22 04:12:23;;;;;;;11.98;5.57;;;;;;;-146.25;100.00;52475.66;2104038;28;20033;-70
2023/03/22 04:13:46;;;;;;;11.70;5.50;;;;;;;-146.25;100.00;52465.53;2098820;28;20928;-70
2023/03/22 04:14:54;;;;;;;10.15;5.28;;;;;;;-146.25;100.00;52435.09;2097182;28;20079;-70
2023/03/22 04:16:00;;;;;;;17.95;5.88;;;;;;;-146.25;100.00;52443.22;2105191;28;20255;-70
2023/03/22 04:17:07;;;;;;;9.25;5.40;;;;;;;-146.25;100.00;52420.91;2104751;28;20060;-70
2023/03/22 04:18:10;;;;;;;11.65;5.90;;;;;;;-146.25;100.00;52412.81;2096168;28;20822;-70
2023/03/22 04:19:13;;;;;;;13.35;5.70;;;;;;;-146.25;100.00;52441.19;2096711;28;20876;-70
2023/03/22 04:20:15;;;;;;;13.63;5.68;;;;;;;-146.25;100.00;52437.13;2104592;28;20940;-70
2023/03/22 04:21:20;;;;;;;7.90;5.45;;;;;;;-146.25;100.00;52483.78;2113317;28;20545;-70
2023/03/22 04:22:37;;;;;;;14.65;5.13;;;;;;;-146.25;100.00;52433.06;2104597;28;20624;-70
2023/03/22 04:23:39;;;;;;;8.68;4.65;;;;;;;-146.25;100.00;52429.03;2105220;28;20044;-70
2023/03/22 04:24:42;;;;;;;10.07;5.65;;;;;;;-146.25;100.00;52463.50;2104456;28;20159;-70
2023/03/22 04:25:49;;;;;;;11.55;5.05;;;;;;;-146.25;100.00;52455.38;2096355;28;20850;-71
2023/03/22 04:26:58;;;;;;;10.07;5.63;;;;;;;-146.25;100.00;52422.94;2098472;28;20036;-71
2023/03/22 04:28:04;;;;;;;13.60;5.35;;;;;;;-146.25;100.00;52449.31;2089697;28;20105;-70
2023/03/22 04:29:08;;;;;;;12.45;5.18;;;;;;;-146.25;100.00;52439.16;2089613;28;21096;-70
2023/03/22 04:30:21;;;;;;;10.82;5.53;;;;;;;-146.25;100.00;52408.75;2105099;28;20044;-70
2023/03/22 04:31:36;;;;;;;;;;;;;;;-146.25;100.00;52422.94;2110157;28;20048;-70
2023/03/22 04:32:49;;;;;;;10.80;4.88;;;;;;;-146.25;100.00;52449.31;2112835;28;19974;-70
2023/03/22 04:33:54;;;;;;;13.02;5.20;;;;;;;-146.25;100.00;52441.19;2104503;28;20047;-70
2023/03/22 04:35:07;;;;;;;10.40;4.53;;;;;;;-146.25;100.00;52445.25;2105883;28;20928;-70
2023/03/22 04:36:09;;;;;;;10.95;4.82;;;;;;;-146.25;100.00;52439.16;2104648;28;20067;-70
2023/03/22 04:37:25;;;;;;;10.00;4.95;;;;;;;-146.25;100.00;52431.06;2106563;28;20045;-71
2023/03/22 04:38:38;;;;;;;9.95;4.95;;;;;;;-146.25;100.00;52398.59;2104423;28;20032;-70
2023/03/22 04:39:43;;;;;;;8.55;4.90;;;;;;;-146.25;100.00;52453.34;2105873;28;20068;-70
2023/03/22 04:41:09;;;;;;;11.93;4.97;;;;;;;-146.25;100.00;52420.91;2091263;28;20130;-70
2023/03/22 04:42:16;;;;;;;11.52;4.93;;;;;;;-146.25;100.00;52465.53;2093222;28;20041;-70
2023/03/22 04:43:22;;;;;;;10.88;4.38;;;;;;;-146.25;100.00;52435.09;2096167;28;20041;-70
2023/03/22 04:44:31;;;;;;;9.10;4.88;;;;;;;-146.25;100.00;52437.13;2106000;28;20025;-70
2023/03/22 04:45:33;;;;;;;11.75;5.03;;;;;;;-146.25;100.00;52429.03;2104955;28;20040;-70
2023/03/22 04:46:41;;;;;;;8.23;4.60;;;;;;;-146.25;100.00;52457.41;2105077;28;21003;-70
2023/03/22 04:47:46;;;;;;;10.63;4.60;;;;;;;-146.25;100.00;52465.53;2104492;28;20894;-70
2023/03/22 04:48:49;;;;;;;8.60;4.40;;;;;;;-146.25;100.00;52410.78;2105170;28;20044;-71
2023/03/22 04:49:52;;;;;;;8.60;4.28;;;;;;;-146.25;100.00;52429.03;2104161;28;20028;-70
2023/03/22 04:50:54;;;;;;;8.80;4.40;;;;;;;-146.25;100.00;52435.09;2095440;28;20045;-70
2023/03/22 04:51:59;;;;;;;11.43;4.45;;;;;;;-146.25;100.00;52416.84;2105383;28;20041;-70
2023/03/22 04:53:08;;;;;;;8.85;4.00;;;;;;;-146.25;100.00;52437.13;2104412;28;20151;-70
2023/03/22 04:54:10;;;;;;;8.65;4.55;;;;;;;-146.25;100.00;52461.47;2095502;28;32081;-70
2023/03/22 04:55:15;;;;;;;11.02;4.63;;;;;;;-146.25;100.00;52437.13;2104170;28;20041;-70
2023/03/22 04:56:18;;;;;;;8.63;4.00;;;;;;;-146.25;100.00;52453.34;2103834;28;20048;-70
2023/03/22 04:57:26;;;;;;;8.68;4.82;;;;;;;-146.25;100.00;52459.44;2096613;28;20047;-70
2023/03/22 04:58:28;;;;;;;10.48;4.60;;;;;;;-146.25;100.00;52439.16;2097030;28;20794;-70
2023/03/22 04:59:30;;;;;;;9.80;4.88;;;;;;;-146.25;100.00;52422.94;2103942;28;31579;-70
2023/03/22 05:00:33;;;;;;;8.85;4.90;;;;;;;-146.25;100.00;52453.34;2104194;28;20092;-70
2023/03/22 05:01:36;;;;;;;7.30;4.80;;;;;;;-146.25;100.00;52445.25;2095828;28;20048;-70
2023/03/22 05:02:48;;;;;;;10.98;5.03;;;;;;;-146.25;100.00;52439.16;2088881;28;20045;-70
2023/03/22 05:03:57;;;;;;;14.25;5.35;;;;;;;-146.25;100.00;52433.06;2097121;28;20203;-70
2023/03/22 05:04:59;;;;;;;11.38;5.45;;;;;;;-146.25;100.00;52447.28;2097466;28;20044;-70
2023/03/22 05:06:08;;;;;;;9.77;5.43;;;;;;;-146.25;100.00;52429.03;2089108;28;20877;-70
2023/03/22 05:07:32;;;;;;;13.85;5.75;;;;;;;-146.25;100.00;52463.50;2104191;28;20059;-71
2023/03/22 05:08:37;;;;;;;10.02;5.70;;;;;;;-146.25;100.00;52457.41;2104177;28;20940;-71
2023/03/22 05:09:41;;;;;;;8.68;5.82;;;;;;;-146.25;100.00;52439.16;2096139;28;20868;-70
2023/03/22 05:10:49;;;;;;;11.25;6.15;;;;;;;-146.25;100.00;52408.75;2096725;28;20052;-70